Flight Track Log - Related Links

Times and Time Zones

All times are in EST time to prevent confusion due to time zone crossing. See the N9305T flight status page for this flight to view local times or setup timezone preferences in your user account.

Time Position Orientation Groundspeed Altitude Reporting Facility
EST Latitude Longitude Course Direction KTS MPH feet Rate Location/Type
Thu 11:47:07 AM 38.7333 -77.5333 270° West 105 121 1,100  Level Potomac TRACON
Thu 11:48:08 AM 38.7333 -77.5667 270° West 119 137 2,100 446 Climbing Potomac TRACON
Thu 11:49:08 AM 38.7333 -77.6167 237° Southwest 145 167 2,000 248 Descending Potomac TRACON
Thu 11:50:09 AM 38.7167 -77.6500 201° Southwest 125 144 2,600 621 Climbing Potomac TRACON
Thu 11:51:04 AM 38.6833 -77.6667 201° Southwest 145 167 3,200 626 Climbing Potomac TRACON
Thu 11:52:04 AM 38.6500 -77.6833 195° South 139 160 3,800 347 Climbing Potomac TRACON
Thu 11:53:05 AM 38.6000 -77.7000 201° Southwest 148 170 3,900 50 Climbing Potomac TRACON
Thu 11:54:05 AM 38.5667 -77.7167 208° Southwest 169 194 3,900  Level Potomac TRACON
Thu 11:55:06 AM 38.5167 -77.7500 195° South 169 194 3,900  Level Potomac TRACON
Thu 11:56:06 AM 38.4667 -77.7667 195° South 172 198 3,900 50 Level Potomac TRACON
Thu 11:57:07 AM 38.4167 -77.7833 201° Southwest 170 196 4,000 50 Climbing Potomac TRACON
Thu 11:58:07 AM 38.3833 -77.8000 195° South 159 183 4,000 -50 Level Potomac TRACON
Thu 11:59:08 AM 38.3333 -77.8167 218° Southwest 162 186 3,900 -50 Descending Potomac TRACON
Thu 12:00:08 PM 38.3000 -77.8500 195° South 170 196 3,900 50 Level Potomac TRACON
Thu 12:01:09 PM 38.2500 -77.8667 152° Southeast 165 190 4,000  Climbing Potomac TRACON
Thu 12:02:09 PM 38.2000 -77.8333 159° South 180 207 3,900 -149 Descending Potomac TRACON
Thu 12:03:10 PM 38.1667 -77.8167 130° Southeast 184 212 3,700 -545 Descending Potomac TRACON
Thu 12:04:10 PM 38.1333 -77.7667 142° Southeast 191 220 2,800 -446 Descending Potomac TRACON
Thu 12:05:11 PM 38.1000 -77.7333 165° South 157 181 2,800  Level Potomac TRACON
Thu 12:06:11 PM 38.0500 -77.7167 165° South 151 174 2,800  Level Potomac TRACON

Login

Don't have an account? Register now (free) for customized features, flight alerts, and more!